sensor_id;sensor_type;location;lat;lon;timestamp;P1;durP1;ratioP1;P2;durP2;ratioP2
65545;SDS011;52177;55.968;37.498;2022-11-09T11:24:19;17.40;;;11.70;;
65545;SDS011;52177;55.968;37.498;2022-11-09T11:25:00;15.45;;;11.38;;
65545;SDS011;52177;55.968;37.498;2022-11-09T11:25:32;18.05;;;12.10;;
65545;SDS011;52177;55.968;37.498;2022-11-09T11:26:05;15.40;;;10.80;;
65545;SDS011;52177;55.968;37.498;2022-11-09T11:27:05;14.40;;;10.55;;
65545;SDS011;52177;55.968;37.498;2022-11-09T11:27:45;15.93;;;10.75;;
65545;SDS011;52177;55.968;37.498;2022-11-09T11:28:42;15.25;;;9.90;;
65545;SDS011;52177;55.968;37.498;2022-11-09T11:30:31;14.30;;;10.20;;
65545;SDS011;52177;55.968;37.498;2022-11-09T11:31:10;15.65;;;9.93;;
65545;SDS011;52177;55.968;37.498;2022-11-09T11:31:43;19.83;;;11.40;;
65545;SDS011;52177;55.968;37.498;2022-11-09T11:32:15;18.98;;;10.35;;
65545;SDS011;52177;55.968;37.498;2022-11-09T11:32:47;16.55;;;10.48;;
65545;SDS011;52177;55.968;37.498;2022-11-09T11:33:18;17.80;;;10.90;;
65545;SDS011;52177;55.968;37.498;2022-11-09T11:33:48;18.52;;;10.70;;
65545;SDS011;52177;55.968;37.498;2022-11-09T11:34:19;17.15;;;10.52;;
65545;SDS011;52177;55.968;37.498;2022-11-09T11:34:49;16.13;;;11.35;;
65545;SDS011;52177;55.968;37.498;2022-11-09T11:40:02;19.23;;;11.23;;
65545;SDS011;52177;55.968;37.498;2022-11-09T11:41:41;18.00;;;10.70;;
65545;SDS011;52177;55.968;37.498;2022-11-09T11:46:46;13.40;;;9.45;;
65545;SDS011;52177;55.968;37.498;2022-11-09T11:48:14;14.82;;;10.40;;
65545;SDS011;52177;55.968;37.498;2022-11-09T11:50:49;11.25;;;8.73;;
65545;SDS011;52177;55.968;37.498;2022-11-09T11:55:40;14.65;;;9.32;;
65545;SDS011;52177;55.968;37.498;2022-11-09T11:56:25;13.32;;;9.70;;
65545;SDS011;52177;55.968;37.498;2022-11-09T11:58:14;14.85;;;9.60;;
65545;SDS011;52177;55.968;37.498;2022-11-09T12:00:44;14.75;;;9.18;;
65545;SDS011;52177;55.968;37.498;2022-11-09T12:01:26;13.10;;;9.63;;
65545;SDS011;52177;55.968;37.498;2022-11-09T12:02:40;12.57;;;9.15;;
65545;SDS011;52177;55.968;37.498;2022-11-09T12:03:32;12.32;;;9.10;;
65545;SDS011;52177;55.968;37.498;2022-11-09T12:05:21;11.88;;;9.10;;
65545;SDS011;52177;55.968;37.498;2022-11-09T12:07:36;15.60;;;9.77;;
65545;SDS011;52177;55.968;37.498;2022-11-09T12:08:15;12.77;;;9.52;;
65545;SDS011;52177;55.968;37.498;2022-11-09T12:16:23;12.60;;;9.30;;
65545;SDS011;52177;55.968;37.498;2022-11-09T12:22:21;12.45;;;8.20;;
65545;SDS011;52177;55.968;37.498;2022-11-09T12:23:21;12.77;;;9.50;;
65545;SDS011;52177;55.968;37.498;2022-11-09T12:24:24;12.80;;;9.02;;
65545;SDS011;52177;55.968;37.498;2022-11-09T12:26:42;11.18;;;8.30;;
65545;SDS011;52177;55.968;37.498;2022-11-09T12:28:13;12.25;;;9.07;;
65545;SDS011;52177;55.968;37.498;2022-11-09T12:28:55;13.75;;;9.00;;
65545;SDS011;52177;55.968;37.498;2022-11-09T12:29:33;13.25;;;8.75;;
65545;SDS011;52177;55.968;37.498;2022-11-09T12:30:13;12.75;;;9.00;;
65545;SDS011;52177;55.968;37.498;2022-11-09T12:30:51;12.15;;;8.57;;
65545;SDS011;52177;55.968;37.498;2022-11-09T12:33:57;9.85;;;7.75;;
65545;SDS011;52177;55.968;37.498;2022-11-09T12:34:44;11.02;;;7.97;;
65545;SDS011;52177;55.968;37.498;2022-11-09T12:36:00;10.48;;;8.55;;
65545;SDS011;52177;55.968;37.498;2022-11-09T12:36:41;12.85;;;8.65;;
65545;SDS011;52177;55.968;37.498;2022-11-09T12:37:25;11.23;;;8.32;;
65545;SDS011;52177;55.968;37.498;2022-11-09T12:38:03;12.30;;;9.20;;
65545;SDS011;52177;55.968;37.498;2022-11-09T12:38:50;12.68;;;8.85;;
65545;SDS011;52177;55.968;37.498;2022-11-09T12:39:37;12.63;;;8.80;;
65545;SDS011;52177;55.968;37.498;2022-11-09T12:40:17;13.68;;;9.73;;
65545;SDS011;52177;55.968;37.498;2022-11-09T12:41:29;12.35;;;8.90;;
65545;SDS011;52177;55.968;37.498;2022-11-09T12:42:12;12.02;;;9.18;;
65545;SDS011;52177;55.968;37.498;2022-11-09T12:43:10;13.52;;;9.07;;
65545;SDS011;52177;55.968;37.498;2022-11-09T12:43:57;12.90;;;9.07;;
65545;SDS011;52177;55.968;37.498;2022-11-09T12:44:38;13.30;;;9.88;;
65545;SDS011;52177;55.968;37.498;2022-11-09T12:45:16;12.05;;;8.93;;
65545;SDS011;52177;55.968;37.498;2022-11-09T12:45:48;15.73;;;10.07;;
65545;SDS011;52177;55.968;37.498;2022-11-09T12:46:23;12.55;;;9.52;;
65545;SDS011;52177;55.968;37.498;2022-11-09T12:47:04;13.45;;;10.10;;
65545;SDS011;52177;55.968;37.498;2022-11-09T12:47:44;15.90;;;10.10;;
65545;SDS011;52177;55.968;37.498;2022-11-09T12:48:25;13.98;;;9.93;;
65545;SDS011;52177;55.968;37.498;2022-11-09T12:49:00;13.32;;;9.30;;
65545;SDS011;52177;55.968;37.498;2022-11-09T12:49:37;14.15;;;9.38;;
65545;SDS011;52177;55.968;37.498;2022-11-09T12:50:12;11.13;;;8.95;;
65545;SDS011;52177;55.968;37.498;2022-11-09T12:50:45;14.82;;;9.68;;
65545;SDS011;52177;55.968;37.498;2022-11-09T12:51:16;12.70;;;9.50;;
65545;SDS011;52177;55.968;37.498;2022-11-09T12:51:47;11.50;;;9.60;;
65545;SDS011;52177;55.968;37.498;2022-11-09T12:52:18;14.43;;;10.25;;
65545;SDS011;52177;55.968;37.498;2022-11-09T12:52:56;12.60;;;9.65;;
65545;SDS011;52177;55.968;37.498;2022-11-09T12:53:29;13.30;;;9.45;;
65545;SDS011;52177;55.968;37.498;2022-11-09T12:54:03;12.73;;;9.30;;
65545;SDS011;52177;55.968;37.498;2022-11-09T12:54:41;12.60;;;9.30;;
65545;SDS011;52177;55.968;37.498;2022-11-09T12:55:31;12.93;;;9.35;;
65545;SDS011;52177;55.968;37.498;2022-11-09T12:56:20;10.77;;;8.43;;
65545;SDS011;52177;55.968;37.498;2022-11-09T12:57:06;11.45;;;8.45;;
65545;SDS011;52177;55.968;37.498;2022-11-09T12:57:41;11.52;;;8.50;;
65545;SDS011;52177;55.968;37.498;2022-11-09T12:58:18;11.18;;;8.25;;
65545;SDS011;52177;55.968;37.498;2022-11-09T12:58:51;13.15;;;8.50;;
65545;SDS011;52177;55.968;37.498;2022-11-09T12:59:58;10.85;;;8.30;;
65545;SDS011;52177;55.968;37.498;2022-11-09T13:01:06;12.27;;;8.52;;
65545;SDS011;52177;55.968;37.498;2022-11-09T13:01:44;12.70;;;9.13;;
65545;SDS011;52177;55.968;37.498;2022-11-09T13:02:22;13.35;;;8.95;;
65545;SDS011;52177;55.968;37.498;2022-11-09T13:02:57;11.10;;;9.00;;
65545;SDS011;52177;55.968;37.498;2022-11-09T13:03:30;14.00;;;8.90;;
65545;SDS011;52177;55.968;37.498;2022-11-09T13:04:03;12.18;;;8.98;;
65545;SDS011;52177;55.968;37.498;2022-11-09T13:04:35;13.80;;;9.68;;
65545;SDS011;52177;55.968;37.498;2022-11-09T13:05:07;13.02;;;9.52;;
65545;SDS011;52177;55.968;37.498;2022-11-09T13:06:41;15.73;;;9.05;;
65545;SDS011;52177;55.968;37.498;2022-11-09T13:08:16;10.38;;;8.32;;
65545;SDS011;52177;55.968;37.498;2022-11-09T13:09:31;13.73;;;9.35;;
65545;SDS011;52177;55.968;37.498;2022-11-09T13:10:03;9.88;;;8.77;;
65545;SDS011;52177;55.968;37.498;2022-11-09T13:10:37;10.07;;;8.93;;
65545;SDS011;52177;55.968;37.498;2022-11-09T13:11:21;14.65;;;8.98;;
65545;SDS011;52177;55.968;37.498;2022-11-09T13:11:54;13.18;;;8.32;;
65545;SDS011;52177;55.968;37.498;2022-11-09T13:13:48;11.70;;;8.52;;
65545;SDS011;52177;55.968;37.498;2022-11-09T13:14:51;10.30;;;8.63;;
65545;SDS011;52177;55.968;37.498;2022-11-09T13:15:23;11.10;;;8.70;;
65545;SDS011;52177;55.968;37.498;2022-11-09T13:16:09;13.82;;;9.02;;
65545;SDS011;52177;55.968;37.498;2022-11-09T13:16:41;11.68;;;8.63;;
65545;SDS011;52177;55.968;37.498;2022-11-09T13:17:58;13.60;;;9.00;;
65545;SDS011;52177;55.968;37.498;2022-11-09T13:18:51;10.30;;;8.38;;
65545;SDS011;52177;55.968;37.498;2022-11-09T13:20:36;12.63;;;8.27;;
65545;SDS011;52177;55.968;37.498;2022-11-09T13:21:52;16.63;;;9.02;;
65545;SDS011;52177;55.968;37.498;2022-11-09T13:23:32;13.00;;;8.80;;
65545;SDS011;52177;55.968;37.498;2022-11-09T13:25:01;15.18;;;9.10;;
65545;SDS011;52177;55.968;37.498;2022-11-09T13:25:52;12.57;;;8.50;;
65545;SDS011;52177;55.968;37.498;2022-11-09T13:27:02;12.40;;;9.57;;
65545;SDS011;52177;55.968;37.498;2022-11-09T13:27:43;12.73;;;9.27;;
65545;SDS011;52177;55.968;37.498;2022-11-09T13:29:06;15.23;;;10.13;;
65545;SDS011;52177;55.968;37.498;2022-11-09T13:30:42;12.02;;;9.73;;
65545;SDS011;52177;55.968;37.498;2022-11-09T13:31:08;18.00;;;10.23;;
65545;SDS011;52177;55.968;37.498;2022-11-09T13:32:38;14.32;;;10.02;;
65545;SDS011;52177;55.968;37.498;2022-11-09T13:33:44;15.75;;;12.05;;
65545;SDS011;52177;55.968;37.498;2022-11-09T13:36:40;15.07;;;10.32;;
65545;SDS011;52177;55.968;37.498;2022-11-09T13:38:28;15.45;;;9.98;;
65545;SDS011;52177;55.968;37.498;2022-11-09T13:39:57;17.50;;;10.25;;
65545;SDS011;52177;55.968;37.498;2022-11-09T13:41:01;16.23;;;9.95;;
65545;SDS011;52177;55.968;37.498;2022-11-09T13:42:16;13.90;;;10.18;;
65545;SDS011;52177;55.968;37.498;2022-11-09T13:42:59;18.90;;;11.35;;
65545;SDS011;52177;55.968;37.498;2022-11-09T13:43:36;13.98;;;10.45;;
65545;SDS011;52177;55.968;37.498;2022-11-09T13:44:22;13.75;;;10.70;;
65545;SDS011;52177;55.968;37.498;2022-11-09T13:46:58;13.52;;;9.32;;
65545;SDS011;52177;55.968;37.498;2022-11-09T13:47:33;12.68;;;9.63;;
65545;SDS011;52177;55.968;37.498;2022-11-09T13:48:05;14.35;;;10.60;;
65545;SDS011;52177;55.968;37.498;2022-11-09T13:49:37;14.63;;;10.32;;
65545;SDS011;52177;55.968;37.498;2022-11-09T13:50:16;15.93;;;12.23;;
65545;SDS011;52177;55.968;37.498;2022-11-09T13:50:52;15.43;;;12.15;;
65545;SDS011;52177;55.968;37.498;2022-11-09T13:52:04;18.10;;;16.13;;
65545;SDS011;52177;55.968;37.498;2022-11-09T13:52:40;20.60;;;18.45;;
65545;SDS011;52177;55.968;37.498;2022-11-09T13:53:32;21.27;;;16.77;;
65545;SDS011;52177;55.968;37.498;2022-11-09T13:54:33;14.70;;;12.60;;
65545;SDS011;52177;55.968;37.498;2022-11-09T13:55:48;17.50;;;11.20;;
65545;SDS011;52177;55.968;37.498;2022-11-09T13:56:30;13.40;;;10.65;;
65545;SDS011;52177;55.968;37.498;2022-11-09T13:57:08;17.73;;;12.13;;
65545;SDS011;52177;55.968;37.498;2022-11-09T13:57:39;15.02;;;11.10;;
65545;SDS011;52177;55.968;37.498;2022-11-09T14:00:43;14.60;;;9.98;;
65545;SDS011;52177;55.968;37.498;2022-11-09T14:01:04;14.57;;;10.40;;
65545;SDS011;52177;55.968;37.498;2022-11-09T14:01:44;14.63;;;10.95;;
65545;SDS011;52177;55.968;37.498;2022-11-09T14:02:21;14.82;;;10.02;;
65545;SDS011;52177;55.968;37.498;2022-11-09T14:03:29;14.88;;;10.95;;
65545;SDS011;52177;55.968;37.498;2022-11-09T14:04:00;13.82;;;11.35;;
65545;SDS011;52177;55.968;37.498;2022-11-09T14:04:37;14.15;;;11.77;;
65545;SDS011;52177;55.968;37.498;2022-11-09T14:05:29;13.55;;;10.52;;
65545;SDS011;52177;55.968;37.498;2022-11-09T14:06:03;14.55;;;10.73;;
65545;SDS011;52177;55.968;37.498;2022-11-09T14:06:33;14.98;;;10.98;;
65545;SDS011;52177;55.968;37.498;2022-11-09T14:07:49;15.93;;;11.48;;
65545;SDS011;52177;55.968;37.498;2022-11-09T14:08:20;14.93;;;11.93;;
65545;SDS011;52177;55.968;37.498;2022-11-09T14:08:53;13.32;;;11.07;;
65545;SDS011;52177;55.968;37.498;2022-11-09T14:09:24;15.55;;;12.63;;
65545;SDS011;52177;55.968;37.498;2022-11-09T14:19:50;15.07;;;11.63;;
65545;SDS011;52177;55.968;37.498;2022-11-09T14:20:40;15.98;;;11.57;;
65545;SDS011;52177;55.968;37.498;2022-11-09T14:21:30;15.43;;;11.05;;
65545;SDS011;52177;55.968;37.498;2022-11-09T14:22:14;13.48;;;10.63;;
65545;SDS011;52177;55.968;37.498;2022-11-09T14:22:47;15.88;;;12.05;;
65545;SDS011;52177;55.968;37.498;2022-11-09T14:23:18;17.02;;;11.93;;
65545;SDS011;52177;55.968;37.498;2022-11-09T14:23:51;15.05;;;11.27;;
65545;SDS011;52177;55.968;37.498;2022-11-09T14:24:28;14.77;;;12.32;;
65545;SDS011;52177;55.968;37.498;2022-11-09T14:25:45;16.60;;;11.38;;
65545;SDS011;52177;55.968;37.498;2022-11-09T14:26:21;14.95;;;12.10;;
65545;SDS011;52177;55.968;37.498;2022-11-09T14:27:29;15.48;;;12.50;;
65545;SDS011;52177;55.968;37.498;2022-11-09T14:27:59;13.63;;;12.13;;
65545;SDS011;52177;55.968;37.498;2022-11-09T14:28:30;16.38;;;12.20;;
65545;SDS011;52177;55.968;37.498;2022-11-09T14:29:19;16.92;;;12.85;;
65545;SDS011;52177;55.968;37.498;2022-11-09T14:29:53;16.50;;;11.80;;
65545;SDS011;52177;55.968;37.498;2022-11-09T14:30:29;17.65;;;12.65;;
65545;SDS011;52177;55.968;37.498;2022-11-09T14:31:00;14.57;;;11.57;;
65545;SDS011;52177;55.968;37.498;2022-11-09T14:31:31;18.67;;;11.55;;
65545;SDS011;52177;55.968;37.498;2022-11-09T14:32:17;19.60;;;12.95;;
65545;SDS011;52177;55.968;37.498;2022-11-09T14:32:48;13.35;;;10.80;;
65545;SDS011;52177;55.968;37.498;2022-11-09T14:33:24;17.20;;;12.10;;
65545;SDS011;52177;55.968;37.498;2022-11-09T14:33:57;14.88;;;12.02;;
65545;SDS011;52177;55.968;37.498;2022-11-09T14:34:32;15.60;;;12.27;;
65545;SDS011;52177;55.968;37.498;2022-11-09T14:35:52;16.95;;;11.30;;
65545;SDS011;52177;55.968;37.498;2022-11-09T14:36:26;14.15;;;11.80;;
65545;SDS011;52177;55.968;37.498;2022-11-09T14:36:59;14.40;;;11.05;;
65545;SDS011;52177;55.968;37.498;2022-11-09T14:37:30;14.02;;;11.68;;
65545;SDS011;52177;55.968;37.498;2022-11-09T14:38:14;17.13;;;11.38;;
65545;SDS011;52177;55.968;37.498;2022-11-09T14:38:46;18.80;;;11.68;;
65545;SDS011;52177;55.968;37.498;2022-11-09T14:39:50;13.05;;;11.27;;
65545;SDS011;52177;55.968;37.498;2022-11-09T14:40:24;15.40;;;11.73;;
65545;SDS011;52177;55.968;37.498;2022-11-09T14:40:56;15.80;;;11.52;;
65545;SDS011;52177;55.968;37.498;2022-11-09T14:41:26;15.57;;;11.85;;
65545;SDS011;52177;55.968;37.498;2022-11-09T14:41:57;15.73;;;11.98;;
65545;SDS011;52177;55.968;37.498;2022-11-09T14:42:27;13.25;;;11.52;;
65545;SDS011;52177;55.968;37.498;2022-11-09T14:43:04;16.08;;;11.88;;
65545;SDS011;52177;55.968;37.498;2022-11-09T14:43:53;16.05;;;11.63;;
65545;SDS011;52177;55.968;37.498;2022-11-09T14:44:43;16.40;;;11.50;;
65545;SDS011;52177;55.968;37.498;2022-11-09T14:45:16;15.98;;;11.23;;
65545;SDS011;52177;55.968;37.498;2022-11-09T14:45:54;14.38;;;10.88;;
65545;SDS011;52177;55.968;37.498;2022-11-09T14:46:28;13.65;;;12.02;;
65545;SDS011;52177;55.968;37.498;2022-11-09T14:47:00;13.93;;;11.23;;
65545;SDS011;52177;55.968;37.498;2022-11-09T14:47:32;14.50;;;11.48;;
65545;SDS011;52177;55.968;37.498;2022-11-09T14:48:13;16.48;;;11.70;;
65545;SDS011;52177;55.968;37.498;2022-11-09T14:48:58;14.57;;;12.07;;
65545;SDS011;52177;55.968;37.498;2022-11-09T14:49:30;16.25;;;11.52;;
65545;SDS011;52177;55.968;37.498;2022-11-09T14:50:01;15.75;;;11.65;;
65545;SDS011;52177;55.968;37.498;2022-11-09T14:50:34;16.77;;;12.43;;
65545;SDS011;52177;55.968;37.498;2022-11-09T14:51:06;15.98;;;12.10;;
65545;SDS011;52177;55.968;37.498;2022-11-09T14:51:42;16.95;;;11.50;;
65545;SDS011;52177;55.968;37.498;2022-11-09T14:52:16;15.60;;;12.30;;
65545;SDS011;52177;55.968;37.498;2022-11-09T14:52:51;16.13;;;11.35;;
65545;SDS011;52177;55.968;37.498;2022-11-09T14:53:27;18.20;;;11.25;;
65545;SDS011;52177;55.968;37.498;2022-11-09T14:54:00;14.15;;;11.32;;
65545;SDS011;52177;55.968;37.498;2022-11-09T14:54:32;13.02;;;11.00;;
65545;SDS011;52177;55.968;37.498;2022-11-09T14:55:03;15.80;;;11.13;;
65545;SDS011;52177;55.968;37.498;2022-11-09T14:55:36;12.32;;;10.95;;
65545;SDS011;52177;55.968;37.498;2022-11-09T14:56:11;14.90;;;11.20;;
65545;SDS011;52177;55.968;37.498;2022-11-09T14:56:45;15.02;;;11.18;;
65545;SDS011;52177;55.968;37.498;2022-11-09T14:57:16;14.25;;;10.70;;
65545;SDS011;52177;55.968;37.498;2022-11-09T14:57:47;15.18;;;11.18;;
65545;SDS011;52177;55.968;37.498;2022-11-09T14:58:19;15.13;;;11.10;;
65545;SDS011;52177;55.968;37.498;2022-11-09T14:58:50;14.02;;;11.13;;
65545;SDS011;52177;55.968;37.498;2022-11-09T14:59:31;15.27;;;11.05;;
65545;SDS011;52177;55.968;37.498;2022-11-09T15:00:05;11.85;;;10.52;;
65545;SDS011;52177;55.968;37.498;2022-11-09T15:01:37;11.50;;;10.30;;
65545;SDS011;52177;55.968;37.498;2022-11-09T15:02:08;15.57;;;11.30;;
65545;SDS011;52177;55.968;37.498;2022-11-09T15:02:44;14.55;;;10.80;;
65545;SDS011;52177;55.968;37.498;2022-11-09T15:03:28;12.43;;;9.98;;
65545;SDS011;52177;55.968;37.498;2022-11-09T15:04:56;14.02;;;10.25;;
65545;SDS011;52177;55.968;37.498;2022-11-09T15:05:35;14.05;;;10.18;;
65545;SDS011;52177;55.968;37.498;2022-11-09T15:06:10;14.63;;;10.60;;
65545;SDS011;52177;55.968;37.498;2022-11-09T15:06:46;11.00;;;9.88;;
65545;SDS011;52177;55.968;37.498;2022-11-09T15:07:20;12.57;;;10.48;;
65545;SDS011;52177;55.968;37.498;2022-11-09T15:07:53;12.90;;;10.50;;
65545;SDS011;52177;55.968;37.498;2022-11-09T15:08:23;12.07;;;9.60;;
65545;SDS011;52177;55.968;37.498;2022-11-09T15:08:55;13.88;;;11.15;;
65545;SDS011;52177;55.968;37.498;2022-11-09T15:10:04;12.40;;;10.55;;
65545;SDS011;52177;55.968;37.498;2022-11-09T15:10:51;14.25;;;10.48;;
65545;SDS011;52177;55.968;37.498;2022-11-09T15:11:38;14.90;;;10.57;;
65545;SDS011;52177;55.968;37.498;2022-11-09T15:12:17;12.23;;;10.45;;
65545;SDS011;52177;55.968;37.498;2022-11-09T15:12:49;13.85;;;10.05;;
65545;SDS011;52177;55.968;37.498;2022-11-09T15:13:29;13.18;;;10.52;;
65545;SDS011;52177;55.968;37.498;2022-11-09T15:14:47;12.43;;;9.88;;
65545;SDS011;52177;55.968;37.498;2022-11-09T15:15:21;10.52;;;9.43;;
65545;SDS011;52177;55.968;37.498;2022-11-09T15:15:54;13.52;;;10.38;;
65545;SDS011;52177;55.968;37.498;2022-11-09T15:16:28;14.05;;;10.60;;
65545;SDS011;52177;55.968;37.498;2022-11-09T15:17:31;15.27;;;10.45;;
65545;SDS011;52177;55.968;37.498;2022-11-09T15:18:04;11.75;;;10.23;;
65545;SDS011;52177;55.968;37.498;2022-11-09T15:18:44;12.65;;;10.63;;
65545;SDS011;52177;55.968;37.498;2022-11-09T15:19:19;13.73;;;10.40;;
65545;SDS011;52177;55.968;37.498;2022-11-09T15:20:42;10.93;;;8.88;;
65545;SDS011;52177;55.968;37.498;2022-11-09T15:21:14;11.27;;;10.07;;
65545;SDS011;52177;55.968;37.498;2022-11-09T15:22:05;11.90;;;9.27;;
65545;SDS011;52177;55.968;37.498;2022-11-09T15:22:56;12.63;;;9.73;;
65545;SDS011;52177;55.968;37.498;2022-11-09T15:23:36;11.07;;;9.48;;
65545;SDS011;52177;55.968;37.498;2022-11-09T15:24:45;12.57;;;9.68;;
65545;SDS011;52177;55.968;37.498;2022-11-09T15:25:27;14.35;;;10.50;;
65545;SDS011;52177;55.968;37.498;2022-11-09T15:26:44;13.43;;;9.68;;
65545;SDS011;52177;55.968;37.498;2022-11-09T15:27:30;14.75;;;10.15;;
65545;SDS011;52177;55.968;37.498;2022-11-09T15:28:43;12.55;;;10.23;;
65545;SDS011;52177;55.968;37.498;2022-11-09T15:29:55;10.95;;;9.85;;
65545;SDS011;52177;55.968;37.498;2022-11-09T15:31:30;12.75;;;10.13;;
65545;SDS011;52177;55.968;37.498;2022-11-09T15:32:07;12.15;;;10.23;;
65545;SDS011;52177;55.968;37.498;2022-11-09T15:32:45;13.55;;;10.25;;
65545;SDS011;52177;55.968;37.498;2022-11-09T15:33:20;13.35;;;10.57;;
65545;SDS011;52177;55.968;37.498;2022-11-09T15:33:56;15.20;;;10.77;;
65545;SDS011;52177;55.968;37.498;2022-11-09T15:34:30;12.18;;;9.93;;
65545;SDS011;52177;55.968;37.498;2022-11-09T15:35:12;13.77;;;10.30;;
65545;SDS011;52177;55.968;37.498;2022-11-09T15:35:55;15.38;;;11.75;;
65545;SDS011;52177;55.968;37.498;2022-11-09T15:36:33;12.02;;;10.48;;
65545;SDS011;52177;55.968;37.498;2022-11-09T15:37:25;15.48;;;10.88;;
65545;SDS011;52177;55.968;37.498;2022-11-09T15:38:38;12.60;;;9.85;;
65545;SDS011;52177;55.968;37.498;2022-11-09T15:39:11;11.68;;;9.85;;
65545;SDS011;52177;55.968;37.498;2022-11-09T15:39:45;13.35;;;11.15;;
65545;SDS011;52177;55.968;37.498;2022-11-09T15:40:17;14.63;;;10.88;;
65545;SDS011;52177;55.968;37.498;2022-11-09T15:40:50;14.60;;;11.45;;
65545;SDS011;52177;55.968;37.498;2022-11-09T15:41:20;12.82;;;11.48;;
65545;SDS011;52177;55.968;37.498;2022-11-09T15:41:52;13.05;;;10.90;;
65545;SDS011;52177;55.968;37.498;2022-11-09T15:42:23;19.10;;;12.25;;
65545;SDS011;52177;55.968;37.498;2022-11-09T15:42:54;15.48;;;11.80;;
65545;SDS011;52177;55.968;37.498;2022-11-09T15:43:25;15.38;;;11.27;;
65545;SDS011;52177;55.968;37.498;2022-11-09T15:43:56;12.48;;;11.18;;
65545;SDS011;52177;55.968;37.498;2022-11-09T15:44:27;13.45;;;11.35;;
65545;SDS011;52177;55.968;37.498;2022-11-09T15:44:58;14.05;;;11.60;;
65545;SDS011;52177;55.968;37.498;2022-11-09T15:45:28;12.65;;;11.13;;
65545;SDS011;52177;55.968;37.498;2022-11-09T15:45:59;13.13;;;11.65;;
65545;SDS011;52177;55.968;37.498;2022-11-09T15:46:42;13.52;;;11.15;;
65545;SDS011;52177;55.968;37.498;2022-11-09T15:47:18;16.60;;;11.38;;
65545;SDS011;52177;55.968;37.498;2022-11-09T15:47:53;15.35;;;10.82;;
65545;SDS011;52177;55.968;37.498;2022-11-09T15:48:25;13.77;;;11.85;;
65545;SDS011;52177;55.968;37.498;2022-11-09T15:48:56;15.15;;;11.43;;
65545;SDS011;52177;55.968;37.498;2022-11-09T15:49:35;13.85;;;11.10;;
65545;SDS011;52177;55.968;37.498;2022-11-09T15:50:09;14.48;;;11.88;;
65545;SDS011;52177;55.968;37.498;2022-11-09T15:50:45;15.95;;;11.18;;
65545;SDS011;52177;55.968;37.498;2022-11-09T15:51:16;15.25;;;11.90;;
65545;SDS011;52177;55.968;37.498;2022-11-09T15:51:47;14.23;;;11.50;;
65545;SDS011;52177;55.968;37.498;2022-11-09T15:52:18;14.18;;;11.63;;
65545;SDS011;52177;55.968;37.498;2022-11-09T15:52:48;15.70;;;12.18;;
65545;SDS011;52177;55.968;37.498;2022-11-09T15:53:19;16.05;;;12.57;;
65545;SDS011;52177;55.968;37.498;2022-11-09T15:53:50;15.40;;;11.95;;
65545;SDS011;52177;55.968;37.498;2022-11-09T15:54:21;13.45;;;11.90;;
65545;SDS011;52177;55.968;37.498;2022-11-09T15:54:52;16.77;;;11.73;;
65545;SDS011;52177;55.968;37.498;2022-11-09T15:55:23;14.00;;;11.15;;
65545;SDS011;52177;55.968;37.498;2022-11-09T15:55:54;14.02;;;11.30;;
65545;SDS011;52177;55.968;37.498;2022-11-09T15:56:24;15.05;;;12.30;;
65545;SDS011;52177;55.968;37.498;2022-11-09T15:56:54;12.85;;;11.38;;
65545;SDS011;52177;55.968;37.498;2022-11-09T15:57:25;17.60;;;12.80;;
65545;SDS011;52177;55.968;37.498;2022-11-09T15:57:55;14.45;;;12.15;;
65545;SDS011;52177;55.968;37.498;2022-11-09T15:58:26;14.98;;;12.75;;
65545;SDS011;52177;55.968;37.498;2022-11-09T15:58:56;15.07;;;11.48;;
65545;SDS011;52177;55.968;37.498;2022-11-09T15:59:27;16.52;;;12.70;;
65545;SDS011;52177;55.968;37.498;2022-11-09T15:59:57;15.95;;;12.30;;
65545;SDS011;52177;55.968;37.498;2022-11-09T16:00:29;15.52;;;12.80;;
65545;SDS011;52177;55.968;37.498;2022-11-09T16:00:59;13.45;;;11.52;;
65545;SDS011;52177;55.968;37.498;2022-11-09T16:01:29;16.13;;;12.38;;
65545;SDS011;52177;55.968;37.498;2022-11-09T16:02:03;16.02;;;12.05;;
65545;SDS011;52177;55.968;37.498;2022-11-09T16:02:33;15.70;;;12.43;;
65545;SDS011;52177;55.968;37.498;2022-11-09T16:03:04;14.52;;;11.80;;
65545;SDS011;52177;55.968;37.498;2022-11-09T16:03:34;15.88;;;12.63;;
65545;SDS011;52177;55.968;37.498;2022-11-09T16:04:04;17.60;;;12.32;;
65545;SDS011;52177;55.968;37.498;2022-11-09T16:04:35;13.45;;;11.55;;
65545;SDS011;52177;55.968;37.498;2022-11-09T16:05:05;14.88;;;12.50;;
65545;SDS011;52177;55.968;37.498;2022-11-09T16:05:36;17.40;;;12.43;;
65545;SDS011;52177;55.968;37.498;2022-11-09T16:06:10;18.83;;;11.43;;
65545;SDS011;52177;55.968;37.498;2022-11-09T16:06:46;18.58;;;11.40;;
65545;SDS011;52177;55.968;37.498;2022-11-09T16:07:16;18.80;;;12.50;;
65545;SDS011;52177;55.968;37.498;2022-11-09T16:07:48;15.57;;;11.57;;
65545;SDS011;52177;55.968;37.498;2022-11-09T16:08:19;13.98;;;11.98;;
65545;SDS011;52177;55.968;37.498;2022-11-09T16:08:49;16.05;;;12.90;;
65545;SDS011;52177;55.968;37.498;2022-11-09T16:09:20;15.07;;;11.45;;
65545;SDS011;52177;55.968;37.498;2022-11-09T16:09:51;15.00;;;12.18;;
65545;SDS011;52177;55.968;37.498;2022-11-09T16:10:21;16.45;;;12.57;;
65545;SDS011;52177;55.968;37.498;2022-11-09T16:10:52;19.25;;;12.70;;
65545;SDS011;52177;55.968;37.498;2022-11-09T16:11:22;14.77;;;12.93;;
65545;SDS011;52177;55.968;37.498;2022-11-09T16:11:53;14.63;;;11.82;;
65545;SDS011;52177;55.968;37.498;2022-11-09T16:12:23;15.13;;;12.98;;
65545;SDS011;52177;55.968;37.498;2022-11-09T16:12:54;14.40;;;12.45;;
65545;SDS011;52177;55.968;37.498;2022-11-09T16:13:25;19.02;;;13.60;;
65545;SDS011;52177;55.968;37.498;2022-11-09T16:13:58;17.80;;;12.73;;
65545;SDS011;52177;55.968;37.498;2022-11-09T16:14:30;15.50;;;12.98;;
65545;SDS011;52177;55.968;37.498;2022-11-09T16:15:01;18.13;;;13.35;;
65545;SDS011;52177;55.968;37.498;2022-11-09T16:15:32;15.07;;;13.25;;
65545;SDS011;52177;55.968;37.498;2022-11-09T16:16:05;19.98;;;13.18;;
65545;SDS011;52177;55.968;37.498;2022-11-09T16:16:37;16.55;;;13.52;;
65545;SDS011;52177;55.968;37.498;2022-11-09T16:17:07;20.92;;;14.63;;
65545;SDS011;52177;55.968;37.498;2022-11-09T16:17:37;21.92;;;14.40;;
65545;SDS011;52177;55.968;37.498;2022-11-09T16:18:08;18.15;;;14.02;;
65545;SDS011;52177;55.968;37.498;2022-11-09T16:18:38;17.77;;;13.77;;
65545;SDS011;52177;55.968;37.498;2022-11-09T16:19:10;17.60;;;13.32;;
65545;SDS011;52177;55.968;37.498;2022-11-09T16:19:43;16.88;;;13.00;;
65545;SDS011;52177;55.968;37.498;2022-11-09T16:20:13;17.90;;;13.85;;
65545;SDS011;52177;55.968;37.498;2022-11-09T16:20:43;15.45;;;13.45;;
65545;SDS011;52177;55.968;37.498;2022-11-09T16:21:14;18.50;;;13.25;;
65545;SDS011;52177;55.968;37.498;2022-11-09T16:21:46;15.90;;;14.10;;
65545;SDS011;52177;55.968;37.498;2022-11-09T16:22:16;18.20;;;14.25;;
65545;SDS011;52177;55.968;37.498;2022-11-09T16:22:46;19.20;;;14.38;;
65545;SDS011;52177;55.968;37.498;2022-11-09T16:23:17;17.17;;;14.30;;
65545;SDS011;52177;55.968;37.498;2022-11-09T16:23:47;17.83;;;13.77;;